Time;durP1;ratioP1;P1;durP2;ratioP2;P2;SDS_P1;SDS_P2;PMS_P1;PMS_P2;Temp;Humidity;BMP_temperature;BMP_pressure;BME280_temperature;BME280_humidity;BME280_pressure;Samples;Min_cycle;Max_cycle;Signal;HPM_P1;HPM_P2
2021/12/19 00:01:56;;;;;;;28.23;14.20;;;7.50;99.90;;;;;;5070721;28;20155;-79
2021/12/19 00:04:30;;;;;;;19.67;13.13;;;7.40;99.90;;;;;;5062049;28;20055;-87
2021/12/19 00:09:40;;;;;;;18.05;12.80;;;7.50;99.90;;;;;;5055148;28;20523;-86
2021/12/19 00:12:06;;;;;;;21.83;11.77;;;7.40;99.90;;;;;;5070107;28;20047;-88
2021/12/19 00:14:31;;;;;;;15.45;8.82;;;7.40;99.90;;;;;;5065271;28;20029;-84
2021/12/19 00:16:57;;;;;;;14.18;8.57;;;7.40;99.90;;;;;;5087816;28;20046;-74
2021/12/19 00:19:23;;;;;;;15.05;8.25;;;7.40;99.90;;;;;;5105253;28;20048;-81
2021/12/19 00:21:49;;;;;;;10.05;4.90;;;7.40;99.90;;;;;;5090878;28;20051;-84
2021/12/19 00:24:15;;;;;;;20.13;5.18;;;7.30;99.90;;;;;;5085058;28;20044;-76
2021/12/19 00:26:40;;;;;;;7.03;4.47;;;7.30;99.90;;;;;;5072907;28;20036;-79
2021/12/19 00:29:07;;;;;;;9.20;4.07;;;7.40;99.90;;;;;;5082395;28;20062;-71
2021/12/19 00:31:33;;;;;;;5.65;3.75;;;7.40;99.90;;;;;;5088267;28;20050;-82
2021/12/19 00:33:59;;;;;;;6.50;3.65;;;7.40;99.90;;;;;;5080517;28;20525;-87
2021/12/19 00:36:25;;;;;;;3.63;2.20;;;7.30;99.90;;;;;;5079966;28;20036;-88
2021/12/19 00:38:52;;;;;;;8.90;3.50;;;7.40;99.90;;;;;;5075834;28;20048;-87
2021/12/19 00:41:18;;;;;;;3.00;2.00;;;7.40;99.90;;;;;;5089915;28;20043;-87
2021/12/19 00:43:54;;;;;;;5.43;2.28;;;7.40;99.90;;;;;;5086199;28;20032;-83
2021/12/19 00:46:22;;;;;;;7.97;3.60;;;7.30;99.90;;;;;;5091254;28;20047;-89
2021/12/19 00:48:53;;;;;;;4.60;1.45;;;7.30;99.90;;;;;;5087101;28;20029;-87
2021/12/19 00:51:22;;;;;;;1.73;0.90;;;7.20;99.90;;;;;;5069270;28;20048;-84
2021/12/19 00:53:49;;;;;;;3.33;1.00;;;7.30;99.90;;;;;;5067671;28;20060;-86
2021/12/19 00:56:15;;;;;;;0.73;0.60;;;7.20;99.90;;;;;;5072001;28;20086;-77
2021/12/19 00:58:41;;;;;;;3.08;1.20;;;7.30;99.90;;;;;;5076750;28;20380;-86
2021/12/19 01:01:08;;;;;;;2.92;1.00;;;7.30;99.90;;;;;;5074404;28;20040;-87
2021/12/19 01:03:34;;;;;;;3.67;0.85;;;7.30;99.90;;;;;;5088075;28;20119;-87
2021/12/19 01:06:01;;;;;;;3.25;1.20;;;7.20;99.90;;;;;;5083110;28;20135;-84
2021/12/19 01:08:26;;;;;;;1.88;1.20;;;7.20;99.90;;;;;;5071868;28;20071;-86
2021/12/19 01:10:53;;;;;;;1.65;1.35;;;7.20;99.90;;;;;;5088907;28;20036;-85
2021/12/19 01:13:19;;;;;;;3.20;1.38;;;7.30;99.90;;;;;;5054765;28;20062;-85
2021/12/19 01:15:46;;;;;;;1.73;1.25;;;7.30;99.90;;;;;;5077798;28;20054;-86
2021/12/19 01:18:12;;;;;;;4.95;2.17;;;7.30;99.90;;;;;;5077441;28;20359;-76
2021/12/19 01:20:41;;;;;;;2.50;1.20;;;7.30;99.90;;;;;;5082839;28;20085;-87
2021/12/19 01:23:08;;;;;;;4.85;1.85;;;7.20;99.90;;;;;;5068860;28;20045;-85
2021/12/19 01:25:34;;;;;;;2.50;1.35;;;7.20;99.90;;;;;;5087815;28;20075;-85
2021/12/19 01:28:00;;;;;;;3.60;1.20;;;7.20;99.90;;;;;;5094192;28;20040;-85
2021/12/19 01:30:26;;;;;;;2.35;1.20;;;7.20;99.90;;;;;;5068488;28;20051;-86
2021/12/19 01:32:51;;;;;;;1.48;0.90;;;7.20;99.90;;;;;;5078014;28;20036;-85
2021/12/19 01:35:19;;;;;;;2.22;1.00;;;7.20;99.90;;;;;;5089374;28;20047;-87
2021/12/19 01:37:45;;;;;;;3.80;1.20;;;7.20;99.90;;;;;;5087996;28;20055;-87
2021/12/19 01:40:13;;;;;;;1.23;1.10;;;7.20;99.90;;;;;;5103452;28;20039;-85
2021/12/19 01:42:41;;;;;;;2.80;1.20;;;7.20;99.90;;;;;;5075575;28;20044;-87
2021/12/19 01:45:11;;;;;;;1.92;0.85;;;7.20;99.90;;;;;;5103003;28;20040;-86
2021/12/19 01:47:37;;;;;;;2.30;1.05;;;7.20;99.90;;;;;;5090519;28;20043;-87
2021/12/19 01:50:08;;;;;;;8.90;1.30;;;7.20;99.90;;;;;;5081224;28;20036;-86
2021/12/19 01:52:33;;;;;;;3.33;1.48;;;7.20;99.90;;;;;;5067907;28;20051;-86
2021/12/19 01:54:59;;;;;;;3.20;1.10;;;7.20;99.90;;;;;;5074290;28;20044;-87
2021/12/19 01:57:25;;;;;;;1.73;0.95;;;7.20;99.90;;;;;;5059771;28;20520;-87
2021/12/19 01:59:52;;;;;;;1.00;0.88;;;7.10;99.90;;;;;;5061900;28;20048;-86
2021/12/19 02:02:18;;;;;;;2.25;1.33;;;7.10;99.90;;;;;;5062914;28;20040;-85
2021/12/19 02:04:44;;;;;;;1.17;0.73;;;7.20;99.90;;;;;;5069851;28;20048;-85
2021/12/19 02:07:11;;;;;;;3.40;1.02;;;7.20;99.90;;;;;;5078160;28;20157;-87
2021/12/19 02:09:37;;;;;;;2.15;1.08;;;7.20;99.90;;;;;;5082083;28;20048;-86
2021/12/19 02:12:04;;;;;;;6.50;1.00;;;7.20;99.90;;;;;;5076766;28;20055;-84
2021/12/19 02:14:30;;;;;;;3.97;0.98;;;7.20;99.90;;;;;;5077794;28;20037;-86
2021/12/19 02:16:55;;;;;;;3.45;0.60;;;7.10;99.90;;;;;;5081760;28;20044;-85
2021/12/19 02:19:24;;;;;;;4.88;0.65;;;7.20;99.90;;;;;;5087864;28;20059;-85
2021/12/19 02:21:50;;;;;;;4.80;1.67;;;7.20;99.90;;;;;;5080144;28;20457;-84
2021/12/19 02:24:15;;;;;;;5.20;1.33;;;7.10;99.90;;;;;;5049143;28;20074;-87
2021/12/19 02:26:43;;;;;;;2.13;0.85;;;7.10;99.90;;;;;;5075126;28;20071;-85
2021/12/19 02:29:09;;;;;;;2.28;1.20;;;7.10;99.90;;;;;;5076172;28;20051;-85
2021/12/19 02:31:36;;;;;;;1.25;0.80;;;7.00;99.90;;;;;;5057956;28;20044;-85
2021/12/19 02:34:07;;;;;;;3.45;1.17;;;7.10;99.90;;;;;;5068815;28;20530;-84
2021/12/19 02:36:56;;;;;;;3.80;1.10;;;7.10;99.90;;;;;;5075560;28;20049;-85
2021/12/19 02:50:11;;;;;;;0.52;0.28;;;7.10;99.90;;;;;;5096178;28;20053;-85
2021/12/19 02:52:37;;;;;;;2.27;0.30;;;7.00;99.90;;;;;;5065491;28;20040;-85
2021/12/19 02:55:04;;;;;;;1.00;0.30;;;7.00;99.90;;;;;;5092172;28;20127;-85
2021/12/19 02:57:29;;;;;;;0.88;0.20;;;7.00;99.90;;;;;;5077403;28;20040;-85
2021/12/19 02:59:55;;;;;;;0.55;0.25;;;6.90;99.90;;;;;;5078817;28;20045;-84
2021/12/19 03:02:22;;;;;;;0.60;0.30;;;6.90;99.90;;;;;;5070569;28;20178;-87
2021/12/19 03:04:59;;;;;;;2.13;0.70;;;6.90;99.90;;;;;;5079832;28;20403;-86
2021/12/19 03:07:26;;;;;;;2.97;0.70;;;6.90;99.90;;;;;;5086786;28;20040;-86
2021/12/19 03:18:00;;;;;;;1.27;0.70;;;6.80;99.90;;;;;;5052056;28;20103;-84
2021/12/19 03:20:27;;;;;;;1.60;1.08;;;6.90;99.90;;;;;;5064874;28;20047;-86
2021/12/19 03:22:52;;;;;;;6.05;2.30;;;6.80;99.90;;;;;;5062228;28;20104;-85
2021/12/19 03:25:18;;;;;;;2.72;1.27;;;6.90;99.90;;;;;;5069211;28;20123;-85
2021/12/19 03:27:44;;;;;;;5.47;1.33;;;6.80;99.90;;;;;;5048948;28;20041;-85
2021/12/19 03:30:10;;;;;;;9.00;1.77;;;6.70;99.90;;;;;;5063877;28;20139;-86
2021/12/19 03:32:36;;;;;;;4.22;1.20;;;6.70;99.90;;;;;;5034933;28;20507;-85
2021/12/19 03:35:02;;;;;;;4.82;1.85;;;6.70;99.90;;;;;;5065657;28;20075;-76
2021/12/19 03:37:28;;;;;;;1.63;1.05;;;6.70;99.90;;;;;;5070080;28;20040;-87
2021/12/19 03:40:07;;;;;;;4.95;0.80;;;6.70;99.90;;;;;;5065093;28;20558;-81
2021/12/19 03:42:36;;;;;;;8.07;1.67;;;6.70;99.90;;;;;;5055218;28;20091;-87
2021/12/19 03:45:03;;;;;;;3.28;1.58;;;6.80;99.90;;;;;;5062515;28;20045;-77
2021/12/19 03:47:29;;;;;;;4.20;1.17;;;6.70;99.90;;;;;;5070715;28;20048;-84
2021/12/19 03:49:55;;;;;;;4.15;1.70;;;6.70;99.90;;;;;;5063842;28;20044;-84
2021/12/19 03:52:20;;;;;;;4.80;1.63;;;6.70;99.90;;;;;;5064643;28;20087;-85
2021/12/19 03:54:46;;;;;;;6.97;1.48;;;6.80;99.90;;;;;;5038480;28;20072;-85
2021/12/19 03:57:11;;;;;;;6.22;1.52;;;6.70;99.90;;;;;;5071076;28;20398;-85
2021/12/19 03:59:37;;;;;;;9.20;1.83;;;6.70;99.90;;;;;;5053490;28;20121;-85
2021/12/19 04:02:03;;;;;;;5.22;1.30;;;6.70;99.90;;;;;;5057794;28;20037;-85
2021/12/19 04:04:35;;;;;;;10.57;2.08;;;6.60;99.90;;;;;;5069246;28;20044;-88
2021/12/19 04:07:00;;;;;;;5.15;1.60;;;6.60;99.90;;;;;;5066636;28;20040;-86
2021/12/19 04:09:26;;;;;;;1.38;1.27;;;6.60;99.90;;;;;;5062648;28;20048;-86
2021/12/19 04:11:55;;;;;;;2.88;1.17;;;6.80;99.90;;;;;;5052064;28;20032;-85
2021/12/19 04:14:20;;;;;;;1.52;0.75;;;6.70;99.90;;;;;;5054995;28;20101;-84
2021/12/19 04:16:46;;;;;;;3.88;1.52;;;6.60;99.90;;;;;;5083815;28;20044;-87
2021/12/19 04:19:12;;;;;;;3.15;1.13;;;6.60;99.90;;;;;;5064073;28;20044;-85
2021/12/19 04:21:37;;;;;;;7.07;1.48;;;6.60;99.90;;;;;;5082260;28;20040;-86
2021/12/19 04:24:03;;;;;;;7.32;1.67;;;6.70;99.90;;;;;;5055775;28;20507;-86
2021/12/19 04:26:29;;;;;;;3.50;1.35;;;6.80;99.90;;;;;;5083964;28;20040;-84
2021/12/19 04:28:54;;;;;;;14.65;1.77;;;6.70;99.90;;;;;;5068775;28;20076;-84
2021/12/19 04:31:20;;;;;;;5.97;0.63;;;6.60;99.90;;;;;;5076949;28;20033;-85
2021/12/19 04:33:46;;;;;;;4.35;0.95;;;6.60;99.90;;;;;;5089061;28;20071;-85
2021/12/19 04:36:17;;;;;;;3.38;1.20;;;6.70;99.90;;;;;;5090566;28;20327;-84
2021/12/19 04:57:03;;;;;;;11.93;2.65;;;6.80;99.90;;;;;;5084320;28;20048;-85
2021/12/19 05:05:15;;;;;;;10.05;3.05;;;6.90;99.90;;;;;;5072749;28;20052;-83
2021/12/19 05:15:34;;;;;;;14.32;4.85;;;6.90;99.90;;;;;;5051555;28;21004;-85
2021/12/19 05:18:05;;;;;;;8.82;3.47;;;6.80;99.90;;;;;;5078180;28;20047;-84
2021/12/19 05:20:32;;;;;;;17.00;4.90;;;6.90;99.90;;;;;;5090254;28;20113;-85
2021/12/19 05:23:18;;;;;;;16.52;5.50;;;6.90;99.90;;;;;;5085325;28;20051;-76
2021/12/19 05:25:43;;;;;;;22.23;7.18;;;6.90;99.90;;;;;;5069235;28;20052;-84
2021/12/19 05:28:09;;;;;;;40.03;7.57;;;7.00;99.90;;;;;;5093760;28;20051;-84
2021/12/19 05:30:35;;;;;;;22.55;6.55;;;6.90;99.90;;;;;;5094842;28;20047;-84
2021/12/19 05:33:02;;;;;;;16.77;6.50;;;7.00;99.90;;;;;;5085416;28;20050;-79
2021/12/19 05:46:29;;;;;;;21.30;9.43;;;7.00;99.90;;;;;;5064345;28;20048;-85
2021/12/19 05:48:55;;;;;;;20.50;7.45;;;7.00;99.90;;;;;;5087699;28;20036;-84
2021/12/19 05:51:21;;;;;;;14.20;8.30;;;7.00;99.90;;;;;;5086566;28;20632;-85
2021/12/19 05:53:47;;;;;;;26.92;9.70;;;7.00;99.90;;;;;;5069275;28;20115;-85
2021/12/19 05:56:13;;;;;;;28.85;10.07;;;7.00;99.90;;;;;;5070588;28;20491;-78
2021/12/19 05:58:38;;;;;;;21.88;9.98;;;7.00;99.90;;;;;;5071074;28;20051;-86
2021/12/19 06:01:04;;;;;;;23.33;10.50;;;7.00;99.90;;;;;;5089689;28;20114;-86
2021/12/19 06:03:29;;;;;;;18.92;8.27;;;7.10;99.90;;;;;;5063995;28;20045;-85
2021/12/19 06:05:55;;;;;;;19.08;8.65;;;7.10;99.90;;;;;;5078872;28;20119;-85
2021/12/19 06:08:21;;;;;;;17.73;7.15;;;7.00;99.90;;;;;;5069751;28;20509;-87
2021/12/19 06:10:46;;;;;;;18.70;8.73;;;7.10;99.90;;;;;;5092010;28;20103;-86
2021/12/19 06:13:12;;;;;;;15.57;5.85;;;7.10;99.90;;;;;;5087990;28;20497;-86
2021/12/19 06:15:38;;;;;;;17.67;4.88;;;7.00;99.90;;;;;;5088011;28;20048;-87
2021/12/19 06:18:04;;;;;;;21.02;4.53;;;7.00;99.90;;;;;;5071174;28;20051;-85
2021/12/19 06:20:34;;;;;;;12.75;3.13;;;7.10;99.90;;;;;;5053522;28;20048;-85
2021/12/19 06:23:00;;;;;;;10.40;3.72;;;7.00;99.90;;;;;;5082499;28;20105;-86
2021/12/19 06:25:26;;;;;;;11.32;2.95;;;7.00;99.90;;;;;;5068437;28;20062;-86
2021/12/19 06:27:52;;;;;;;15.02;4.28;;;7.00;99.90;;;;;;5080679;28;20036;-86
2021/12/19 06:30:18;;;;;;;14.60;4.45;;;7.00;99.90;;;;;;5067844;28;20044;-86
2021/12/19 06:32:44;;;;;;;15.40;4.43;;;7.00;99.90;;;;;;5064677;28;20048;-83
2021/12/19 06:35:18;;;;;;;27.05;4.88;;;7.00;99.90;;;;;;5090082;28;20100;-86
2021/12/19 06:37:45;;;;;;;18.42;4.68;;;7.00;99.90;;;;;;5070830;28;20032;-85
2021/12/19 06:40:14;;;;;;;19.00;6.22;;;7.00;99.90;;;;;;5068952;28;20036;-86
2021/12/19 06:42:40;;;;;;;22.00;6.07;;;7.00;99.90;;;;;;5068235;28;20128;-85
2021/12/19 06:45:06;;;;;;;17.42;5.68;;;7.00;99.90;;;;;;5090986;28;20062;-86
2021/12/19 06:47:32;;;;;;;13.85;3.92;;;7.00;99.90;;;;;;5068176;28;20028;-85
2021/12/19 06:49:58;;;;;;;12.52;4.82;;;7.00;99.90;;;;;;5089288;28;20036;-86
2021/12/19 06:52:24;;;;;;;16.58;4.03;;;7.00;99.90;;;;;;5044589;28;20398;-85
2021/12/19 06:54:49;;;;;;;14.48;5.22;;;7.00;99.90;;;;;;5091185;28;20051;-87
2021/12/19 06:57:15;;;;;;;19.85;4.30;;;7.00;99.90;;;;;;5072658;28;20131;-84
2021/12/19 06:59:40;;;;;;;25.98;6.28;;;7.00;99.90;;;;;;5057004;28;20501;-87
2021/12/19 07:02:06;;;;;;;21.08;4.20;;;7.10;99.90;;;;;;5075482;28;20028;-86
2021/12/19 07:04:32;;;;;;;13.50;4.25;;;7.00;99.90;;;;;;5056610;28;20040;-87
2021/12/19 07:06:58;;;;;;;10.68;3.33;;;7.00;99.90;;;;;;5055587;28;20048;-86
2021/12/19 07:09:23;;;;;;;18.55;4.35;;;7.00;99.90;;;;;;5073631;28;20502;-87
2021/12/19 07:11:49;;;;;;;9.80;2.88;;;7.00;99.90;;;;;;5054084;28;20035;-87
2021/12/19 07:14:14;;;;;;;4.78;2.70;;;7.00;99.90;;;;;;5050179;28;20087;-81
2021/12/19 07:16:40;;;;;;;14.85;4.10;;;7.00;99.90;;;;;;5088786;28;20432;-85
2021/12/19 07:19:06;;;;;;;12.45;4.20;;;7.00;99.90;;;;;;5084861;28;20483;-86
2021/12/19 07:21:31;;;;;;;8.25;2.28;;;7.00;99.90;;;;;;5064701;28;20052;-86
2021/12/19 07:23:57;;;;;;;7.43;3.00;;;7.00;99.90;;;;;;5071149;28;20048;-87
2021/12/19 07:26:23;;;;;;;12.07;3.10;;;7.00;99.90;;;;;;5058322;28;20040;-85
2021/12/19 07:28:50;;;;;;;5.22;1.85;;;7.00;99.90;;;;;;5069552;28;20162;-86
2021/12/19 07:31:17;;;;;;;9.73;3.10;;;7.10;99.90;;;;;;5095503;28;20055;-79
2021/12/19 07:33:44;;;;;;;14.00;2.90;;;7.00;99.90;;;;;;5105004;28;20040;-74
2021/12/19 07:36:10;;;;;;;16.17;4.00;;;7.00;99.90;;;;;;5071523;28;20098;-89
2021/12/19 07:38:48;;;;;;;5.63;2.33;;;7.00;99.90;;;;;;5071497;28;20048;-87
2021/12/19 07:41:14;;;;;;;12.25;3.80;;;7.00;99.90;;;;;;5061357;28;20056;-80
2021/12/19 07:43:39;;;;;;;12.73;3.38;;;7.00;99.90;;;;;;5079174;28;20085;-87
2021/12/19 07:46:05;;;;;;;11.25;2.95;;;7.10;99.90;;;;;;5083738;28;20050;-86
2021/12/19 07:48:30;;;;;;;14.73;3.38;;;7.00;99.90;;;;;;5072758;28;20110;-87
2021/12/19 07:50:56;;;;;;;8.30;3.17;;;7.00;99.90;;;;;;5081956;28;20029;-88
2021/12/19 07:53:21;;;;;;;9.88;3.50;;;7.10;99.90;;;;;;5059683;28;20439;-87
2021/12/19 07:55:47;;;;;;;11.32;3.42;;;7.00;99.90;;;;;;5086784;28;20604;-87
2021/12/19 07:58:13;;;;;;;15.43;4.10;;;7.10;99.90;;;;;;5064946;28;20093;-85
2021/12/19 08:00:39;;;;;;;16.88;5.20;;;7.10;99.90;;;;;;5091407;28;20101;-87
2021/12/19 08:03:04;;;;;;;17.10;4.45;;;7.10;99.90;;;;;;5071973;28;20048;-88
2021/12/19 08:05:30;;;;;;;11.98;3.28;;;7.10;99.90;;;;;;5071122;28;20040;-86
2021/12/19 08:08:00;;;;;;;13.35;3.50;;;7.10;99.90;;;;;;5090615;28;20498;-87
2021/12/19 08:13:05;;;;;;;12.68;4.05;;;7.10;99.90;;;;;;5072127;28;20044;-87
2021/12/19 08:15:32;;;;;;;14.23;4.32;;;7.10;99.90;;;;;;5037292;28;20498;-88
2021/12/19 08:17:58;;;;;;;13.80;3.53;;;7.10;99.90;;;;;;5074292;28;20052;-87
2021/12/19 08:20:25;;;;;;;13.95;3.55;;;7.10;99.90;;;;;;5071126;28;20501;-87
2021/12/19 08:22:52;;;;;;;11.82;3.28;;;7.10;99.90;;;;;;5085110;28;20028;-87
2021/12/19 08:25:17;;;;;;;23.90;4.28;;;7.20;99.90;;;;;;5064771;28;20123;-84
2021/12/19 08:27:43;;;;;;;20.52;4.82;;;7.10;99.90;;;;;;5095409;28;20041;-72
2021/12/19 08:30:11;;;;;;;11.27;2.70;;;7.10;99.90;;;;;;5109655;28;20097;-82
2021/12/19 08:32:38;;;;;;;17.40;5.18;;;7.10;99.90;;;;;;5092551;28;20115;-87
2021/12/19 08:35:06;;;;;;;24.77;4.03;;;7.20;99.90;;;;;;5090363;28;20100;-86
2021/12/19 08:37:32;;;;;;;23.20;3.88;;;7.10;99.90;;;;;;5091865;28;20025;-84
2021/12/19 08:39:57;;;;;;;17.02;4.57;;;7.10;99.90;;;;;;5096309;28;20116;-87
2021/12/19 08:42:23;;;;;;;21.17;4.53;;;7.10;99.90;;;;;;5103173;28;20036;-85
2021/12/19 08:44:49;;;;;;;19.17;4.47;;;7.20;99.90;;;;;;5108457;28;20300;-74
2021/12/19 08:47:16;;;;;;;16.52;3.65;;;7.20;99.90;;;;;;5106734;28;20037;-74
2021/12/19 08:49:42;;;;;;;16.13;4.30;;;7.20;99.90;;;;;;5092083;28;20039;-85
2021/12/19 08:52:09;;;;;;;13.65;3.55;;;7.20;99.90;;;;;;5094373;28;20044;-86
2021/12/19 08:54:36;;;;;;;11.50;2.95;;;7.30;99.90;;;;;;5103747;28;20099;-85
2021/12/19 08:57:02;;;;;;;11.18;3.47;;;7.30;99.90;;;;;;5093168;28;20032;-75
2021/12/19 08:59:29;;;;;;;14.32;3.80;;;7.30;99.90;;;;;;5066411;28;20474;-88
2021/12/19 09:01:57;;;;;;;16.38;3.72;;;7.30;99.90;;;;;;5089288;28;20032;-82
2021/12/19 09:04:23;;;;;;;9.77;2.97;;;7.30;99.90;;;;;;5089865;28;20057;-87
2021/12/19 09:06:49;;;;;;;11.20;2.90;;;7.40;99.90;;;;;;5067481;28;20036;-86
2021/12/19 09:09:15;;;;;;;13.50;3.10;;;7.30;99.90;;;;;;5069988;28;20029;-84
2021/12/19 09:11:40;;;;;;;36.30;5.40;;;7.30;99.90;;;;;;5094591;28;20032;-81
2021/12/19 09:14:06;;;;;;;16.92;3.97;;;7.30;99.90;;;;;;5090196;28;20035;-83
2021/12/19 09:16:32;;;;;;;15.38;3.25;;;7.40;99.90;;;;;;5078427;28;20649;-87
2021/12/19 09:18:57;;;;;;;18.73;5.38;;;7.40;99.90;;;;;;5084719;28;20021;-82
2021/12/19 09:21:23;;;;;;;21.83;6.35;;;7.30;99.90;;;;;;5087010;28;20032;-82
2021/12/19 09:23:48;;;;;;;36.40;5.97;;;7.40;99.90;;;;;;5070252;28;20037;-87
2021/12/19 09:26:14;;;;;;;12.93;3.38;;;7.40;99.90;;;;;;5081846;28;20037;-77
2021/12/19 09:28:40;;;;;;;15.20;3.75;;;7.40;99.90;;;;;;5064391;28;20041;-85
2021/12/19 09:31:06;;;;;;;15.32;3.70;;;7.40;99.90;;;;;;5053480;28;20505;-88
2021/12/19 09:33:31;;;;;;;13.02;3.75;;;7.40;99.90;;;;;;5058340;28;20048;-83
2021/12/19 09:35:57;;;;;;;14.10;4.97;;;7.50;99.90;;;;;;5061438;28;20047;-86
2021/12/19 09:38:23;;;;;;;18.92;4.88;;;7.40;99.90;;;;;;5069985;28;20044;-84
2021/12/19 09:40:50;;;;;;;13.93;4.50;;;7.40;99.90;;;;;;5070210;28;20059;-83
2021/12/19 09:43:41;;;;;;;22.48;5.50;;;7.40;99.90;;;;;;5072096;28;20509;-84
2021/12/19 09:46:12;;;;;;;16.23;4.30;;;7.40;99.90;;;;;;5073626;28;20392;-84
2021/12/19 09:48:40;;;;;;;14.38;4.57;;;7.50;99.90;;;;;;5073116;28;20048;-84
2021/12/19 09:51:08;;;;;;;12.10;2.45;;;7.50;99.90;;;;;;5063335;28;20140;-84
2021/12/19 09:53:34;;;;;;;26.33;4.22;;;7.40;99.90;;;;;;5064967;28;20117;-84
2021/12/19 09:56:00;;;;;;;16.15;2.95;;;7.40;99.90;;;;;;5058054;28;20530;-85
2021/12/19 09:58:26;;;;;;;15.98;3.47;;;7.50;99.90;;;;;;5051195;28;20090;-84
2021/12/19 10:00:53;;;;;;;18.88;2.63;;;7.50;99.90;;;;;;5053041;28;20041;-85
2021/12/19 10:03:20;;;;;;;15.93;4.28;;;7.50;99.90;;;;;;5051223;28;20048;-85
2021/12/19 10:05:45;;;;;;;19.35;4.82;;;7.50;99.90;;;;;;5060634;28;20048;-86
2021/12/19 10:08:21;;;;;;;11.70;3.55;;;7.50;99.90;;;;;;5057628;28;20120;-84
2021/12/19 10:10:59;;;;;;;11.77;4.32;;;7.50;99.90;;;;;;5053287;28;20053;-84
2021/12/19 10:13:33;;;;;;;19.33;4.00;;;7.60;99.90;;;;;;5053717;28;20045;-84
2021/12/19 10:15:59;;;;;;;9.85;3.20;;;7.60;99.90;;;;;;5055679;28;20057;-83
2021/12/19 10:18:25;;;;;;;21.23;3.33;;;7.60;99.90;;;;;;5062162;28;21006;-84
2021/12/19 10:20:59;;;;;;;26.52;6.35;;;7.60;99.90;;;;;;5077928;28;20047;-84
2021/12/19 10:23:30;;;;;;;14.95;4.03;;;7.60;99.90;;;;;;5073453;28;20044;-84
2021/12/19 10:26:03;;;;;;;15.15;2.63;;;7.60;99.90;;;;;;5092735;28;20058;-80
2021/12/19 10:28:30;;;;;;;16.00;4.30;;;7.70;99.90;;;;;;5089498;28;20048;-84
2021/12/19 10:30:58;;;;;;;18.05;4.82;;;7.50;99.90;;;;;;5076329;28;20090;-84
2021/12/19 10:33:31;;;;;;;13.68;4.03;;;7.60;99.90;;;;;;5070929;28;20048;-84
2021/12/19 10:36:07;;;;;;;15.20;4.28;;;7.60;99.90;;;;;;5066336;28;20052;-82
2021/12/19 10:38:45;;;;;;;16.70;3.60;;;7.60;99.90;;;;;;5057233;28;20045;-83
2021/12/19 10:41:25;;;;;;;19.05;3.90;;;7.70;99.90;;;;;;5056012;28;20044;-85
2021/12/19 10:46:37;;;;;;;19.65;3.50;;;7.70;99.90;;;;;;5052846;28;20044;-83
2021/12/19 10:49:05;;;;;;;18.73;3.47;;;7.70;99.90;;;;;;5067827;28;20122;-83
2021/12/19 10:51:37;;;;;;;21.05;4.28;;;7.70;99.90;;;;;;5060601;28;20048;-84
2021/12/19 10:54:07;;;;;;;26.13;6.18;;;7.70;99.90;;;;;;5060905;28;20041;-80
2021/12/19 10:56:37;;;;;;;13.32;3.88;;;7.70;99.90;;;;;;5055026;28;20044;-84
2021/12/19 10:59:16;;;;;;;22.90;5.70;;;7.70;99.90;;;;;;5050471;28;20179;-82
2021/12/19 11:01:52;;;;;;;9.88;3.63;;;7.80;99.90;;;;;;5052433;28;20116;-83
2021/12/19 11:04:23;;;;;;;16.60;3.10;;;7.70;99.90;;;;;;5060137;28;20052;-84
2021/12/19 11:07:02;;;;;;;8.85;2.75;;;7.70;99.90;;;;;;5072026;28;20383;-83
2021/12/19 11:09:37;;;;;;;12.95;3.22;;;7.70;99.90;;;;;;5054148;28;20051;-84
2021/12/19 11:12:11;;;;;;;11.52;3.40;;;7.80;99.90;;;;;;5072704;28;20394;-84
2021/12/19 11:14:48;;;;;;;18.95;4.38;;;7.70;99.90;;;;;;5071870;28;20383;-85
2021/12/19 11:17:22;;;;;;;15.57;3.42;;;7.80;99.90;;;;;;5087340;28;20437;-82
2021/12/19 11:19:52;;;;;;;14.02;3.22;;;7.80;99.90;;;;;;5071513;28;20087;-86
2021/12/19 11:22:26;;;;;;;19.50;4.22;;;7.70;99.90;;;;;;5071256;28;20040;-84
2021/12/19 11:25:04;;;;;;;21.80;5.05;;;7.70;99.90;;;;;;5071145;28;20041;-84
2021/12/19 11:27:32;;;;;;;12.30;3.60;;;7.80;99.90;;;;;;5070969;28;20140;-83
2021/12/19 11:29:58;;;;;;;19.33;3.85;;;7.80;99.90;;;;;;5053590;28;20048;-83
2021/12/19 11:32:42;;;;;;;18.92;3.00;;;7.90;99.90;;;;;;5073958;28;20071;-84
2021/12/19 11:35:16;;;;;;;14.30;3.17;;;7.90;99.90;;;;;;5062045;28;20055;-83
2021/12/19 11:37:56;;;;;;;14.70;3.28;;;7.90;99.90;;;;;;5092267;28;20480;-85
2021/12/19 11:40:22;;;;;;;10.00;2.45;;;7.90;99.90;;;;;;5090496;28;20051;-82
2021/12/19 11:42:49;;;;;;;10.60;2.15;;;7.90;99.90;;;;;;5056743;28;20438;-82
2021/12/19 11:47:53;;;;;;;17.50;2.95;;;8.00;99.90;;;;;;5073564;28;20047;-77
2021/12/19 11:50:22;;;;;;;18.55;2.67;;;8.00;99.90;;;;;;5074158;28;20058;-82
2021/12/19 11:52:54;;;;;;;8.35;2.63;;;8.00;99.90;;;;;;5082483;28;20414;-84
2021/12/19 11:55:22;;;;;;;22.63;12.98;;;8.00;99.90;;;;;;5053928;28;20087;-83
2021/12/19 11:58:06;;;;;;;17.23;4.47;;;8.00;99.90;;;;;;5083468;28;20151;-84
2021/12/19 12:00:52;;;;;;;9.50;3.45;;;8.00;99.90;;;;;;5070075;28;20498;-85
2021/12/19 12:03:20;;;;;;;25.58;3.70;;;8.00;99.90;;;;;;5050245;28;20131;-83
2021/12/19 12:05:52;;;;;;;22.20;5.43;;;8.00;99.90;;;;;;5052612;28;20044;-83
2021/12/19 12:08:19;;;;;;;16.30;2.55;;;8.00;99.90;;;;;;5083434;28;20087;-82
2021/12/19 12:10:52;;;;;;;21.15;4.43;;;7.90;99.90;;;;;;5066500;28;20080;-84
2021/12/19 12:13:34;;;;;;;10.80;3.47;;;8.00;99.90;;;;;;5089924;28;20074;-84
2021/12/19 12:16:13;;;;;;;13.00;3.63;;;8.00;99.90;;;;;;5090199;28;20056;-85
2021/12/19 12:18:42;;;;;;;12.25;2.65;;;8.00;99.90;;;;;;5089823;28;20430;-84
2021/12/19 12:21:27;;;;;;;16.30;3.30;;;8.00;99.90;;;;;;5088993;28;20119;-83
2021/12/19 12:23:55;;;;;;;14.10;3.05;;;8.00;99.90;;;;;;5075107;28;20048;-88
2021/12/19 12:26:34;;;;;;;13.48;2.67;;;8.00;99.90;;;;;;5082365;28;20067;-82
2021/12/19 12:28:59;;;;;;;19.52;3.08;;;8.00;99.90;;;;;;5053608;28;20131;-89
2021/12/19 12:31:26;;;;;;;11.40;2.97;;;8.00;99.90;;;;;;5074428;28;20126;-87
2021/12/19 12:33:53;;;;;;;16.67;3.08;;;8.00;99.90;;;;;;5063608;28;20044;-89
2021/12/19 12:36:18;;;;;;;12.52;2.15;;;8.10;99.90;;;;;;5090566;28;20036;-88
2021/12/19 12:38:49;;;;;;;31.40;5.13;;;8.10;99.90;;;;;;5094947;28;20060;-90
2021/12/19 12:41:28;;;;;;;22.23;4.95;;;8.10;99.90;;;;;;5093495;28;20593;-81
2021/12/19 12:43:55;;;;;;;19.17;4.15;;;8.10;99.90;;;;;;5094746;28;20042;-77
2021/12/19 12:46:23;;;;;;;18.90;3.00;;;8.10;99.90;;;;;;5076884;28;20197;-86
2021/12/19 12:48:52;;;;;;;16.90;4.20;;;8.20;99.90;;;;;;5082842;28;20032;-88
2021/12/19 12:51:26;;;;;;;20.90;5.22;;;8.10;99.90;;;;;;5090164;28;20048;-87
2021/12/19 12:53:54;;;;;;;13.82;3.28;;;8.10;99.90;;;;;;5060859;28;20078;-86
2021/12/19 12:56:23;;;;;;;20.00;4.40;;;8.10;99.90;;;;;;5068787;28;20040;-87
2021/12/19 12:58:52;;;;;;;20.63;5.68;;;8.20;99.90;;;;;;5061256;28;20360;-86
2021/12/19 13:01:41;;;;;;;30.30;4.85;;;8.20;99.90;;;;;;5082112;28;20047;-86
2021/12/19 13:04:21;;;;;;;21.80;4.32;;;8.10;99.90;;;;;;5067471;28;20065;-88
2021/12/19 13:06:53;;;;;;;20.55;4.88;;;8.10;99.90;;;;;;5076950;28;20161;-87
2021/12/19 13:09:38;;;;;;;20.55;4.50;;;8.10;99.90;;;;;;5060979;28;20390;-84
2021/12/19 13:12:08;;;;;;;18.23;4.82;;;8.20;99.90;;;;;;5095520;28;20044;-86
2021/12/19 13:14:37;;;;;;;18.67;4.38;;;8.10;99.90;;;;;;5089925;28;20523;-88
2021/12/19 13:17:12;;;;;;;26.95;5.53;;;8.20;99.90;;;;;;5117316;28;20048;-86
2021/12/19 13:19:44;;;;;;;21.00;4.75;;;8.20;99.90;;;;;;5086906;28;20036;-86
2021/12/19 13:22:18;;;;;;;23.45;3.58;;;8.20;99.90;;;;;;5095687;28;20048;-87
2021/12/19 13:24:45;;;;;;;19.02;4.40;;;8.10;99.90;;;;;;5091781;28;20036;-87
2021/12/19 13:27:23;;;;;;;23.40;2.97;;;8.10;99.90;;;;;;5101129;28;20097;-83
2021/12/19 13:30:08;;;;;;;17.75;4.47;;;8.20;99.90;;;;;;5090015;28;20111;-82
2021/12/19 13:32:53;;;;;;;19.52;4.63;;;8.20;99.90;;;;;;5074391;28;20052;-79
2021/12/19 13:35:23;;;;;;;16.92;4.03;;;8.20;99.90;;;;;;5055831;28;20123;-80
2021/12/19 13:38:07;;;;;;;20.30;4.50;;;8.10;99.90;;;;;;5092067;28;20525;-84
2021/12/19 13:40:43;;;;;;;19.40;5.43;;;8.10;99.90;;;;;;5094295;28;20448;-75
2021/12/19 13:43:21;;;;;;;26.60;4.68;;;8.10;99.90;;;;;;5092972;28;20079;-76
2021/12/19 13:45:48;;;;;;;22.33;3.90;;;8.10;99.90;;;;;;5073080;28;20498;-79
2021/12/19 13:48:18;;;;;;;18.65;3.75;;;8.20;99.90;;;;;;5071826;28;20048;-74
2021/12/19 13:50:47;;;;;;;18.23;3.80;;;8.10;99.90;;;;;;5072790;28;20040;-77
2021/12/19 13:53:15;;;;;;;20.38;3.90;;;8.10;99.90;;;;;;5088298;28;20397;-75
2021/12/19 13:55:43;;;;;;;22.48;4.25;;;8.20;99.90;;;;;;5075407;28;20043;-75
2021/12/19 13:58:09;;;;;;;21.70;5.25;;;8.20;99.90;;;;;;5086917;28;20095;-75
2021/12/19 14:00:39;;;;;;;20.70;4.22;;;8.20;99.90;;;;;;5072494;28;20044;-77
2021/12/19 14:03:05;;;;;;;;;;;8.20;99.90;;;;;;5073494;28;20389;-75
2021/12/19 14:05:44;;;;;;;13.23;3.95;;;8.10;99.90;;;;;;5054488;28;19928;-76
2021/12/19 14:08:28;;;;;;;26.77;5.70;;;8.20;99.90;;;;;;5074469;28;20044;-75
2021/12/19 14:11:16;;;;;;;21.00;5.75;;;8.10;99.90;;;;;;5091486;28;20119;-74